createdAt,value
2022-08-19T00:01:59.267Z,83.98
2022-08-19T00:04:30.323Z,85.22
2022-08-19T00:06:56.967Z,85.61
2022-08-19T00:09:25.284Z,85.74
2022-08-19T00:11:53.187Z,85.71
2022-08-19T00:14:21.671Z,86.30
2022-08-19T00:16:49.190Z,86.93
2022-08-19T00:19:17.062Z,86.59
2022-08-19T00:21:44.151Z,86.39
2022-08-19T00:24:12.729Z,86.48
2022-08-19T00:26:39.839Z,86.20
2022-08-19T00:29:12.555Z,87.05
2022-08-19T00:31:39.255Z,87.14
2022-08-19T00:34:05.708Z,86.61
2022-08-19T00:36:33.706Z,85.80
2022-08-19T00:39:00.315Z,86.12
2022-08-19T00:41:27.319Z,86.88
2022-08-19T00:44:07.616Z,86.91
2022-08-19T00:46:37.538Z,86.69
2022-08-19T00:49:10.762Z,86.33
2022-08-19T00:51:37.543Z,85.66
2022-08-19T00:54:04.506Z,84.48
2022-08-19T00:56:32.008Z,83.60
2022-08-19T00:58:59.771Z,82.90
2022-08-19T01:01:27.061Z,83.46
2022-08-19T01:03:57.835Z,83.66
2022-08-19T01:06:26.254Z,83.81
2022-08-19T01:08:52.831Z,83.47
2022-08-19T01:11:19.363Z,83.34
2022-08-19T01:13:48.896Z,84.03
2022-08-19T01:16:19.785Z,83.96
2022-08-19T01:18:46.206Z,83.55
2022-08-19T01:21:41.563Z,83.15
2022-08-19T01:24:08.027Z,83.08
2022-08-19T01:26:40.674Z,83.49
2022-08-19T01:29:10.366Z,84.23
2022-08-19T01:31:40.277Z,85.03
2022-08-19T01:34:08.402Z,84.90
2022-08-19T01:36:48.136Z,84.87
2022-08-19T01:39:20.227Z,85.73
2022-08-19T01:41:47.636Z,85.92
2022-08-19T01:44:19.070Z,86.12
2022-08-19T01:46:48.443Z,86.28
2022-08-19T01:49:15.918Z,86.80
2022-08-19T01:51:42.427Z,87.05
2022-08-19T01:54:10.511Z,87.36
2022-08-19T01:56:37.314Z,87.48
2022-08-19T01:59:09.453Z,87.33
2022-08-19T02:01:36.047Z,87.29
2022-08-19T02:04:03.320Z,87.21
2022-08-19T02:06:30.761Z,87.25
2022-08-19T02:08:57.791Z,87.03
2022-08-19T02:11:32.825Z,86.77
2022-08-19T02:14:00.338Z,86.60
2022-08-19T02:16:27.062Z,86.39
2022-08-19T02:18:53.669Z,86.16
2022-08-19T02:21:26.525Z,86.14
2022-08-19T02:23:53.365Z,85.68
2022-08-19T02:26:20.345Z,85.85
2022-08-19T02:28:47.219Z,85.49
2022-08-19T02:31:19.213Z,84.88
2022-08-19T02:33:47.357Z,83.76
2022-08-19T02:36:15.523Z,82.99
2022-08-19T02:38:42.984Z,83.03
2022-08-19T02:41:26.869Z,82.91
2022-08-19T02:44:18.375Z,83.66
2022-08-19T02:46:42.541Z,84.01
2022-08-19T02:49:09.476Z,83.49
2022-08-19T02:51:39.972Z,83.28
2022-08-19T02:54:08.969Z,83.05
2022-08-19T02:56:37.787Z,83.42
2022-08-19T02:59:12.022Z,83.33
2022-08-19T03:01:41.410Z,82.74
2022-08-19T03:04:10.737Z,82.59
2022-08-19T03:06:40.812Z,82.42
2022-08-19T03:09:08.034Z,82.48
2022-08-19T03:11:34.946Z,83.27
2022-08-19T03:14:03.446Z,82.75
2022-08-19T03:16:33.560Z,81.74
2022-08-19T03:19:01.112Z,82.29
2022-08-19T03:21:30.374Z,82.59
2022-08-19T03:24:03.892Z,81.92
2022-08-19T03:26:31.025Z,81.99
2022-08-19T03:29:02.231Z,82.01
2022-08-19T03:31:43.664Z,81.86
2022-08-19T03:34:28.648Z,82.17
2022-08-19T03:36:58.601Z,82.08
2022-08-19T03:39:28.733Z,82.25
2022-08-19T03:42:30.205Z,82.37
2022-08-19T03:44:50.058Z,82.88
2022-08-19T03:47:17.005Z,83.46
2022-08-19T03:49:43.933Z,83.90
2022-08-19T03:52:10.589Z,84.20
2022-08-19T03:54:38.936Z,84.67
2022-08-19T03:57:05.859Z,85.00
2022-08-19T03:59:36.397Z,85.25
2022-08-19T04:02:10.231Z,85.65
2022-08-19T04:04:38.777Z,85.95
2022-08-19T04:07:05.967Z,86.00
2022-08-19T04:09:35.209Z,85.59
2022-08-19T04:12:01.913Z,85.77
2022-08-19T04:14:33.192Z,85.56
2022-08-19T04:17:00.923Z,85.78
2022-08-19T04:19:30.559Z,85.87
2022-08-19T04:21:57.372Z,85.73
2022-08-19T04:24:24.489Z,85.66
2022-08-19T04:26:52.493Z,85.78
2022-08-19T04:29:23.246Z,85.83
2022-08-19T04:31:50.846Z,84.60
2022-08-19T04:34:25.672Z,84.18
2022-08-19T04:36:54.685Z,83.81
2022-08-19T04:39:44.361Z,83.45
2022-08-19T04:42:40.092Z,83.37
2022-08-19T04:45:14.096Z,82.65
2022-08-19T04:47:47.858Z,81.81
2022-08-19T04:50:29.145Z,80.84
2022-08-19T04:52:57.016Z,81.26
2022-08-19T04:55:26.541Z,81.64
2022-08-19T04:57:53.696Z,80.96
2022-08-19T05:00:20.732Z,80.87
2022-08-19T05:02:47.566Z,81.16
2022-08-19T05:05:15.567Z,81.66
2022-08-19T05:07:42.544Z,82.00
2022-08-19T05:10:09.583Z,81.88
2022-08-19T05:12:36.820Z,81.29
2022-08-19T05:15:06.839Z,81.69
2022-08-19T05:17:38.400Z,81.73
2022-08-19T05:20:25.894Z,81.90
2022-08-19T05:22:53.393Z,80.84
2022-08-19T05:25:21.793Z,79.86
2022-08-19T05:27:49.034Z,79.79
2022-08-19T05:30:17.020Z,79.62
2022-08-19T05:32:43.921Z,79.77
2022-08-19T05:35:10.734Z,79.43
2022-08-19T05:37:37.741Z,79.85
2022-08-19T05:40:05.357Z,79.79
2022-08-19T05:42:32.100Z,80.06
2022-08-19T05:44:59.391Z,80.03
2022-08-19T05:47:26.088Z,79.78
2022-08-19T05:49:52.767Z,80.09
2022-08-19T05:52:25.728Z,79.72
2022-08-19T05:54:57.004Z,80.18
2022-08-19T05:57:25.881Z,80.00
2022-08-19T05:59:58.510Z,79.83
2022-08-19T06:02:31.864Z,80.10
2022-08-19T06:04:58.608Z,79.75
2022-08-19T06:07:25.369Z,81.43
2022-08-19T06:09:59.861Z,82.00
2022-08-19T06:12:35.594Z,82.57
2022-08-19T06:15:13.060Z,83.04
2022-08-19T06:17:39.715Z,83.30
2022-08-19T06:20:09.767Z,83.12
2022-08-19T06:22:41.779Z,83.12
2022-08-19T06:25:10.201Z,82.83
2022-08-19T06:27:41.971Z,82.85
2022-08-19T06:30:15.828Z,81.60
2022-08-19T06:32:43.074Z,81.79
2022-08-19T06:35:09.803Z,81.00
2022-08-19T06:37:39.766Z,80.04
2022-08-19T06:40:09.592Z,80.08
2022-08-19T06:42:36.355Z,79.39
2022-08-19T06:45:09.261Z,79.60
2022-08-19T06:47:36.115Z,80.11
2022-08-19T06:50:05.391Z,79.77
2022-08-19T06:52:34.871Z,79.67
2022-08-19T06:55:06.240Z,79.84
2022-08-19T06:57:33.730Z,79.27
2022-08-19T07:00:07.160Z,78.30
2022-08-19T07:02:37.416Z,78.37
2022-08-19T07:05:06.716Z,78.14
2022-08-19T07:07:34.563Z,78.27
2022-08-19T07:10:03.863Z,78.19
2022-08-19T07:12:38.033Z,79.25
2022-08-19T07:15:10.915Z,78.57
2022-08-19T07:17:40.344Z,78.12
2022-08-19T07:20:10.166Z,78.12
2022-08-19T07:22:40.770Z,78.16
2022-08-19T07:25:09.480Z,77.69
2022-08-19T07:27:39.570Z,77.76
2022-08-19T07:30:07.815Z,77.05
2022-08-19T07:32:38.332Z,76.27
2022-08-19T07:35:06.792Z,75.82
2022-08-19T07:37:34.009Z,76.06
2022-08-19T07:40:02.533Z,75.49
2022-08-19T07:42:30.866Z,75.36
2022-08-19T07:44:59.584Z,75.52
2022-08-19T07:47:48.810Z,73.89
2022-08-19T07:50:15.576Z,73.81
2022-08-19T07:52:48.818Z,73.53
2022-08-19T07:55:42.712Z,73.76
2022-08-19T07:58:06.075Z,73.55
2022-08-19T08:00:33.102Z,74.25
2022-08-19T08:02:59.668Z,75.30
2022-08-19T08:05:44.793Z,75.13
2022-08-19T08:08:33.492Z,76.91
2022-08-19T08:11:01.035Z,76.46
2022-08-19T08:13:28.869Z,75.70
2022-08-19T08:15:56.307Z,74.81
2022-08-19T08:18:27.851Z,74.47
2022-08-19T08:20:58.085Z,73.77
2022-08-19T08:23:27.706Z,74.67
2022-08-19T08:25:57.683Z,74.24
2022-08-19T08:28:25.570Z,74.20
2022-08-19T08:30:52.906Z,73.47
2022-08-19T08:33:29.985Z,71.93
2022-08-19T08:36:01.311Z,71.36
2022-08-19T08:38:38.723Z,70.33
2022-08-19T08:41:23.390Z,71.44
2022-08-19T08:43:53.912Z,71.32
2022-08-19T08:46:41.983Z,71.30
2022-08-19T08:49:21.381Z,71.72
2022-08-19T08:51:59.524Z,70.01
2022-08-19T08:54:34.865Z,69.33
2022-08-19T08:57:05.397Z,68.07
2022-08-19T08:59:37.685Z,69.25
2022-08-19T09:02:04.996Z,70.67
2022-08-19T09:04:31.549Z,69.86
2022-08-19T09:07:00.866Z,69.81
2022-08-19T09:09:43.255Z,71.21
2022-08-19T09:12:39.977Z,71.63
2022-08-19T09:15:12.819Z,71.60
2022-08-19T09:17:40.210Z,71.14
2022-08-19T09:20:11.121Z,71.78
2022-08-19T09:22:39.924Z,72.57
2022-08-19T09:25:08.879Z,71.77
2022-08-19T09:27:42.902Z,71.78
2022-08-19T09:30:17.407Z,71.27
2022-08-19T09:32:46.171Z,70.83
2022-08-19T09:35:14.173Z,70.79
2022-08-19T09:37:41.565Z,71.48
2022-08-19T09:40:11.922Z,71.15
2022-08-19T09:42:39.056Z,70.98
2022-08-19T09:45:22.261Z,71.03
2022-08-19T09:47:54.213Z,71.06
2022-08-19T09:50:22.414Z,71.26
2022-08-19T09:52:53.960Z,71.72
2022-08-19T09:55:22.200Z,71.25
2022-08-19T09:57:50.756Z,71.16
2022-08-19T10:00:17.601Z,70.95
2022-08-19T10:02:44.644Z,70.65
2022-08-19T10:05:31.343Z,70.78
2022-08-19T10:07:58.317Z,71.06
2022-08-19T10:10:25.272Z,71.49
2022-08-19T10:12:53.194Z,71.99
2022-08-19T10:15:28.823Z,71.00
2022-08-19T10:17:56.573Z,69.99
2022-08-19T10:20:25.907Z,69.65
2022-08-19T10:22:53.349Z,68.23
2022-08-19T10:25:20.526Z,67.11
2022-08-19T10:27:51.115Z,66.94
2022-08-19T10:30:18.927Z,67.25
2022-08-19T10:32:48.541Z,66.82
2022-08-19T10:35:22.090Z,66.39
2022-08-19T10:37:57.384Z,66.23
2022-08-19T10:40:29.041Z,66.60
2022-08-19T10:42:57.240Z,66.62
2022-08-19T10:45:26.855Z,66.10
2022-08-19T10:47:57.694Z,65.94
2022-08-19T10:50:43.620Z,67.30
2022-08-19T10:53:10.459Z,68.65
2022-08-19T10:55:56.027Z,68.94
2022-08-19T10:58:27.174Z,69.15
2022-08-19T11:00:56.150Z,69.70
2022-08-19T11:03:23.678Z,69.36
2022-08-19T11:06:01.530Z,68.49
2022-08-19T11:08:28.578Z,68.43
2022-08-19T11:10:58.425Z,67.55
2022-08-19T11:13:25.497Z,67.46
2022-08-19T11:16:07.393Z,67.60
2022-08-19T11:18:44.244Z,67.56
2022-08-19T11:21:18.408Z,67.34
2022-08-19T11:23:46.020Z,67.41
2022-08-19T11:26:12.848Z,67.58
2022-08-19T11:28:39.679Z,67.31
2022-08-19T11:31:14.998Z,67.80
2022-08-19T11:33:42.284Z,68.14
2022-08-19T11:36:15.148Z,68.00
2022-08-19T11:38:41.882Z,68.14
2022-08-19T11:41:09.046Z,68.29
2022-08-19T11:43:37.597Z,68.67
2022-08-19T11:46:10.691Z,68.94
2022-08-19T11:48:38.329Z,70.06
2022-08-19T11:51:07.803Z,70.00
2022-08-19T11:53:35.594Z,70.60
2022-08-19T11:56:03.723Z,72.29
2022-08-19T11:58:30.550Z,75.22
2022-08-19T12:00:57.555Z,77.73
2022-08-19T12:03:24.560Z,79.40
2022-08-19T12:05:51.665Z,82.29
2022-08-19T12:08:19.089Z,84.96
2022-08-19T12:10:46.573Z,85.89
2022-08-19T12:13:19.610Z,87.07
2022-08-19T12:15:48.469Z,87.81
2022-08-19T12:18:16.086Z,88.44
2022-08-19T12:20:44.167Z,89.53
2022-08-19T12:23:11.365Z,90.05
2022-08-19T12:25:51.238Z,89.38
2022-08-19T12:28:21.644Z,89.11
2022-08-19T12:30:51.168Z,89.21
2022-08-19T12:33:19.190Z,88.69
2022-08-19T12:35:47.475Z,88.74
2022-08-19T12:38:15.571Z,87.81
2022-08-19T12:40:42.357Z,87.19
2022-08-19T12:43:09.430Z,87.49
2022-08-19T12:45:36.212Z,88.36
2022-08-19T12:48:32.931Z,87.95
2022-08-19T12:50:52.207Z,88.97
2022-08-19T12:53:18.849Z,90.15
2022-08-19T12:55:45.620Z,90.41
2022-08-19T12:58:13.534Z,90.51
2022-08-19T13:00:40.281Z,90.79
2022-08-19T13:03:06.925Z,90.58
2022-08-19T13:05:35.135Z,90.84
2022-08-19T13:08:01.763Z,90.17
2022-08-19T13:10:35.965Z,90.25
2022-08-19T13:13:06.759Z,90.61
2022-08-19T13:15:40.770Z,90.54
2022-08-19T13:18:10.105Z,89.84
2022-08-19T13:20:37.826Z,89.78
2022-08-19T13:23:05.663Z,88.96
2022-08-19T13:25:32.515Z,88.82
2022-08-19T13:28:00.211Z,87.58
2022-08-19T13:30:45.920Z,86.12
2022-08-19T13:33:12.864Z,86.87
2022-08-19T13:35:57.903Z,87.43
2022-08-19T13:38:25.148Z,88.16
2022-08-19T13:40:53.641Z,88.61
2022-08-19T13:43:27.577Z,87.66
2022-08-19T13:45:56.966Z,87.46
2022-08-19T13:48:27.210Z,87.84
2022-08-19T13:50:55.021Z,88.35
2022-08-19T13:53:21.725Z,86.66
2022-08-19T13:55:52.206Z,86.21
2022-08-19T13:58:19.205Z,84.52
2022-08-19T14:00:47.335Z,84.49
2022-08-19T14:03:14.461Z,84.09
2022-08-19T14:05:41.142Z,82.99
2022-08-19T14:08:08.147Z,83.34
2022-08-19T14:10:35.263Z,84.09
2022-08-19T14:13:03.983Z,83.57
2022-08-19T14:15:32.168Z,84.85
2022-08-19T14:17:59.199Z,85.70
2022-08-19T14:20:26.542Z,86.03
2022-08-19T14:22:54.145Z,86.98
2022-08-19T14:25:26.243Z,86.46
2022-08-19T14:27:53.358Z,85.97
2022-08-19T14:30:26.487Z,86.17
2022-08-19T14:32:53.702Z,87.09
2022-08-19T14:35:22.147Z,88.04
2022-08-19T14:37:56.431Z,88.60
2022-08-19T14:40:26.870Z,89.34
2022-08-19T14:43:05.424Z,89.84
2022-08-19T14:45:34.754Z,89.89
2022-08-19T14:48:03.839Z,90.70
2022-08-19T14:50:30.429Z,90.05
2022-08-19T14:53:05.349Z,90.14
2022-08-19T14:55:42.846Z,88.79
2022-08-19T14:58:09.858Z,88.75
2022-08-19T15:00:56.321Z,88.88
2022-08-19T15:03:22.828Z,88.43
2022-08-19T15:05:49.340Z,89.07
2022-08-19T15:08:15.788Z,88.81
2022-08-19T15:10:42.348Z,89.25
2022-08-19T15:13:10.840Z,90.13
2022-08-19T15:15:38.260Z,89.47
2022-08-19T15:18:04.963Z,90.47
2022-08-19T15:20:31.890Z,90.55
2022-08-19T15:23:00.009Z,90.88
2022-08-19T15:25:28.050Z,91.36
2022-08-19T15:27:55.046Z,93.18
2022-08-19T15:30:27.048Z,91.44
2022-08-19T15:32:54.169Z,90.01
2022-08-19T15:35:21.270Z,89.02
2022-08-19T15:37:52.736Z,89.64
2022-08-19T15:40:21.606Z,90.19
2022-08-19T15:42:49.835Z,90.43
2022-08-19T15:45:18.349Z,90.51
2022-08-19T15:47:45.092Z,90.71
2022-08-19T15:50:23.866Z,90.78
2022-08-19T15:53:01.160Z,90.92
2022-08-19T15:55:34.710Z,90.58
2022-08-19T15:58:28.277Z,90.81
2022-08-19T16:01:23.591Z,91.69
2022-08-19T16:04:13.808Z,92.74
2022-08-19T16:06:45.430Z,93.32
2022-08-19T16:09:13.084Z,93.52
2022-08-19T16:11:39.910Z,93.40
2022-08-19T16:14:09.272Z,92.98
2022-08-19T16:16:36.865Z,93.09
2022-08-19T16:19:10.196Z,93.26
2022-08-19T16:21:41.503Z,93.58
2022-08-19T16:24:10.249Z,93.77
2022-08-19T16:26:36.905Z,93.63
2022-08-19T16:29:08.966Z,93.63
2022-08-19T16:31:39.898Z,94.21
2022-08-19T16:34:06.696Z,94.07
2022-08-19T16:36:34.057Z,94.26
2022-08-19T16:39:01.659Z,93.45
2022-08-19T16:41:28.998Z,92.95
2022-08-19T16:43:56.031Z,92.45
2022-08-19T16:46:23.419Z,92.92
2022-08-19T16:48:53.652Z,93.37
2022-08-19T16:51:20.381Z,93.37
2022-08-19T16:53:46.911Z,93.47
2022-08-19T16:56:13.685Z,93.24
2022-08-19T16:58:40.961Z,92.89
2022-08-19T17:01:10.321Z,92.50
2022-08-19T17:03:39.740Z,93.12
2022-08-19T17:06:20.813Z,93.20
2022-08-19T17:08:50.123Z,93.53
2022-08-19T17:11:19.186Z,93.07
2022-08-19T17:13:47.964Z,92.28
2022-08-19T17:16:17.118Z,90.98
2022-08-19T17:18:45.062Z,90.41
2022-08-19T17:21:13.238Z,88.64
2022-08-19T17:23:42.845Z,87.62
2022-08-19T17:26:16.984Z,88.79
2022-08-19T17:28:49.652Z,87.86
2022-08-19T17:31:18.067Z,88.91
2022-08-19T17:33:48.604Z,89.95
2022-08-19T17:36:22.208Z,91.22
2022-08-19T17:38:49.793Z,91.33
2022-08-19T17:41:17.091Z,90.87
2022-08-19T17:43:44.358Z,91.06
2022-08-19T17:46:18.213Z,90.35
2022-08-19T17:48:52.152Z,90.43
2022-08-19T17:51:42.400Z,89.54
2022-08-19T17:54:13.510Z,90.39
2022-08-19T17:56:42.448Z,89.83
2022-08-19T17:59:14.035Z,89.52
2022-08-19T18:01:52.180Z,89.32
2022-08-19T18:04:23.525Z,88.96
2022-08-19T18:06:53.536Z,89.31
2022-08-19T18:09:41.324Z,88.78
2022-08-19T18:12:11.193Z,89.29
2022-08-19T18:14:41.619Z,89.46
2022-08-19T18:17:13.486Z,90.24
2022-08-19T18:19:43.271Z,89.96
2022-08-19T18:22:33.633Z,90.65
2022-08-19T18:25:01.310Z,90.11
2022-08-19T18:27:28.176Z,89.42
2022-08-19T18:29:58.010Z,88.95
2022-08-19T18:32:26.626Z,88.93
2022-08-19T18:34:54.602Z,89.45
2022-08-19T18:37:21.651Z,90.07
2022-08-19T18:40:06.907Z,90.55
2022-08-19T18:42:52.103Z,90.75
2022-08-19T18:45:37.593Z,90.47
2022-08-19T18:48:26.544Z,90.19
2022-08-19T18:50:55.153Z,89.82
2022-08-19T18:53:21.692Z,89.85
2022-08-19T18:55:53.820Z,89.75
2022-08-19T18:58:25.932Z,90.05
2022-08-19T19:00:54.514Z,90.02
2022-08-19T19:03:21.111Z,89.96
2022-08-19T19:05:48.735Z,90.07
2022-08-19T19:08:15.514Z,90.45
2022-08-19T19:10:42.277Z,91.09
2022-08-19T19:13:09.081Z,90.98
2022-08-19T19:15:36.991Z,89.60
2022-08-19T19:18:03.884Z,89.72
2022-08-19T19:20:36.500Z,90.11
2022-08-19T19:23:04.100Z,89.82
2022-08-19T19:25:50.373Z,89.55
2022-08-19T19:28:25.291Z,89.47
2022-08-19T19:30:53.873Z,88.84
2022-08-19T19:33:20.543Z,88.42
2022-08-19T19:35:47.317Z,88.25
2022-08-19T19:38:14.001Z,87.51
2022-08-19T19:40:40.619Z,88.34
2022-08-19T19:43:10.603Z,88.84
2022-08-19T19:45:38.310Z,89.42
2022-08-19T19:48:05.988Z,89.67
2022-08-19T19:50:32.611Z,90.10
2022-08-19T19:53:00.553Z,90.44
2022-08-19T19:55:29.233Z,90.84
2022-08-19T19:57:57.668Z,89.93
2022-08-19T20:00:25.431Z,90.08
2022-08-19T20:02:55.374Z,90.89
2022-08-19T20:05:23.067Z,90.89
2022-08-19T20:08:10.194Z,91.46
2022-08-19T20:10:37.673Z,92.03
2022-08-19T20:13:05.245Z,92.05
2022-08-19T20:15:32.291Z,92.65
2022-08-19T20:18:04.158Z,93.01
2022-08-19T20:20:31.698Z,92.78
2022-08-19T20:22:58.662Z,92.60
2022-08-19T20:25:25.289Z,92.01
2022-08-19T20:27:52.053Z,91.18
2022-08-19T20:30:21.654Z,91.17
2022-08-19T20:32:50.542Z,91.77
2022-08-19T20:35:19.853Z,91.57
2022-08-19T20:37:46.626Z,91.13
2022-08-19T20:40:14.901Z,90.71
2022-08-19T20:42:43.223Z,90.78
2022-08-19T20:45:21.561Z,90.63
2022-08-19T20:47:58.939Z,90.07
2022-08-19T20:50:26.026Z,90.44
2022-08-19T20:52:56.562Z,90.40
2022-08-19T20:55:23.240Z,89.79
2022-08-19T20:57:49.875Z,89.51
2022-08-19T21:00:16.602Z,89.45
2022-08-19T21:02:43.104Z,89.00
2022-08-19T21:05:09.673Z,89.02
2022-08-19T21:07:39.017Z,88.66
2022-08-19T21:10:07.121Z,88.15
2022-08-19T21:12:33.908Z,89.29
2022-08-19T21:15:01.140Z,88.94
2022-08-19T21:17:28.221Z,89.46
2022-08-19T21:19:56.078Z,89.50
2022-08-19T21:22:31.282Z,90.05
2022-08-19T21:24:58.525Z,89.95
2022-08-19T21:27:31.698Z,89.89
2022-08-19T21:30:02.147Z,88.75
2022-08-19T21:32:30.821Z,88.62
2022-08-19T21:34:57.602Z,88.36
2022-08-19T21:37:26.156Z,88.09
2022-08-19T21:39:56.970Z,88.71
2022-08-19T21:42:24.246Z,88.87
2022-08-19T21:44:54.495Z,89.12
2022-08-19T21:47:21.376Z,88.22
2022-08-19T21:49:48.582Z,89.38
2022-08-19T21:52:22.044Z,89.26
2022-08-19T21:54:48.862Z,88.74
2022-08-19T21:57:15.971Z,88.62
2022-08-19T21:59:44.169Z,89.45
2022-08-19T22:02:20.367Z,89.20
2022-08-19T22:04:49.824Z,88.64
2022-08-19T22:07:16.522Z,88.75
2022-08-19T22:09:45.529Z,88.10
2022-08-19T22:12:31.674Z,88.09
2022-08-19T22:15:00.116Z,87.71
2022-08-19T22:17:29.986Z,87.52
2022-08-19T22:19:57.374Z,88.44
2022-08-19T22:22:27.669Z,88.50
2022-08-19T22:25:00.048Z,88.57
2022-08-19T22:27:26.705Z,89.27
2022-08-19T22:29:53.428Z,89.24
2022-08-19T22:32:28.046Z,89.85
2022-08-19T22:34:57.694Z,89.84
2022-08-19T22:37:24.484Z,90.70
2022-08-19T22:39:51.106Z,91.28
2022-08-19T22:42:20.209Z,91.59
2022-08-19T22:44:46.783Z,91.54
2022-08-19T22:47:13.637Z,92.01
2022-08-19T22:49:40.415Z,91.91
2022-08-19T22:52:18.308Z,91.56
2022-08-19T22:54:54.010Z,92.17
2022-08-19T22:57:21.897Z,92.47
2022-08-19T22:59:50.541Z,92.30
2022-08-19T23:02:31.318Z,92.03
2022-08-19T23:05:02.467Z,92.33
2022-08-19T23:07:29.554Z,92.67
2022-08-19T23:09:56.438Z,93.09
2022-08-19T23:12:30.589Z,93.21
2022-08-19T23:15:12.964Z,93.21
2022-08-19T23:17:40.861Z,92.60
2022-08-19T23:20:14.292Z,92.55
2022-08-19T23:22:42.856Z,92.07
2022-08-19T23:25:13.151Z,92.22
2022-08-19T23:27:58.462Z,92.83
2022-08-19T23:30:27.603Z,93.59
2022-08-19T23:33:12.353Z,93.64
2022-08-19T23:35:41.165Z,93.43
2022-08-19T23:38:09.276Z,93.26
2022-08-19T23:40:38.743Z,93.39
2022-08-19T23:43:08.209Z,93.36
2022-08-19T23:45:40.758Z,93.32
2022-08-19T23:48:18.250Z,93.06
2022-08-19T23:50:45.134Z,93.02
2022-08-19T23:53:14.100Z,93.06
2022-08-19T23:55:44.213Z,93.13
2022-08-19T23:58:16.249Z,93.48
